Time;durP1;ratioP1;P1;durP2;ratioP2;P2;SDS_P1;SDS_P2;PMS_P1;PMS_P2;Temp;Humidity;BMP_temperature;BMP_pressure;BME280_temperature;BME280_humidity;BME280_pressure;Samples;Min_cycle;Max_cycle;Signal;HPM_P1;HPM_P2
2022/05/17 00:00:34;;;;;;;20.00;5.35;;;;;;;13.38;100.00;101853.44;5144680;27;20023;-62
2022/05/17 00:02:59;;;;;;;20.23;5.10;;;;;;;13.33;100.00;101855.13;5146080;27;20023;-61
2022/05/17 00:05:27;;;;;;;18.48;4.95;;;;;;;13.29;100.00;101858.63;5145675;27;20531;-61
2022/05/17 00:07:53;;;;;;;19.60;5.03;;;;;;;13.21;100.00;101855.91;5144666;27;20064;-61
2022/05/17 00:10:18;;;;;;;21.55;5.80;;;;;;;13.41;100.00;101851.72;5146578;27;20030;-62
2022/05/17 00:12:43;;;;;;;21.20;5.60;;;;;;;13.45;100.00;101852.59;5143521;27;20130;-62
2022/05/17 00:15:09;;;;;;;19.08;5.30;;;;;;;13.33;100.00;101849.81;5147096;27;20098;-61
2022/05/17 00:17:36;;;;;;;19.65;5.63;;;;;;;13.38;100.00;101854.34;5144453;27;20031;-61
2022/05/17 00:20:02;;;;;;;21.58;6.32;;;;;;;13.39;100.00;101850.78;5145916;27;20023;-62
2022/05/17 00:22:27;;;;;;;20.23;5.97;;;;;;;13.56;100.00;101845.63;5144953;27;20122;-62
2022/05/17 00:24:53;;;;;;;17.23;5.07;;;;;;;13.48;100.00;101839.34;5144450;27;20525;-62
2022/05/17 00:27:18;;;;;;;18.85;5.20;;;;;;;13.39;100.00;101834.84;5146549;27;20338;-61
2022/05/17 00:29:44;;;;;;;17.35;5.20;;;;;;;13.40;100.00;101833.97;5142842;27;20046;-63
2022/05/17 00:32:09;;;;;;;18.42;4.85;;;;;;;13.47;100.00;101826.97;5146703;27;20384;-62
2022/05/17 00:34:35;;;;;;;20.60;5.30;;;;;;;13.41;100.00;101826.91;5144090;27;20030;-61
2022/05/17 00:37:00;;;;;;;19.70;5.30;;;;;;;13.47;100.00;101826.06;5145011;27;20023;-62
2022/05/17 00:39:26;;;;;;;19.90;5.22;;;;;;;13.36;100.00;101833.94;5145142;27;20023;-62
2022/05/17 00:41:51;;;;;;;18.20;4.95;;;;;;;13.35;100.00;101826.84;5143405;27;20034;-61
2022/05/17 00:47:09;;;;;;;18.35;5.55;;;;;;;13.57;100.00;101830.56;5145447;27;20489;-62
2022/05/17 00:49:40;;;;;;;17.35;5.35;;;;;;;13.57;100.00;101830.56;5143698;27;20033;-62
2022/05/17 00:52:31;;;;;;;20.52;5.72;;;;;;;13.67;100.00;101819.13;5145822;27;20030;-62
2022/05/17 00:55:03;;;;;;;19.80;5.68;;;;;;;13.65;100.00;101817.34;5142542;27;20034;-62
2022/05/17 00:57:35;;;;;;;18.95;5.40;;;;;;;13.63;100.00;101824.41;5143981;27;20061;-62
2022/05/17 01:00:07;;;;;;;21.40;5.43;;;;;;;13.53;100.00;101829.66;5144733;27;20035;-61
2022/05/17 01:02:32;;;;;;;22.45;5.35;;;;;;;13.40;100.00;101818.03;5143654;27;20034;-61
2022/05/17 01:05:03;;;;;;;23.42;5.63;;;;;;;13.45;100.00;101820.72;5144444;27;20024;-61
2022/05/17 01:07:38;;;;;;;19.85;5.18;;;;;;;13.42;100.00;101824.25;5143571;27;20027;-61
2022/05/17 01:10:04;;;;;;;20.63;5.50;;;;;;;13.45;100.00;101825.16;5145226;27;20027;-62
2022/05/17 01:12:29;;;;;;;18.98;5.93;;;;;;;13.33;100.00;101824.16;5144071;27;20050;-61
2022/05/17 01:14:57;;;;;;;19.73;6.00;;;;;;;13.34;100.00;101814.41;5143969;27;20056;-61
2022/05/17 01:17:28;;;;;;;20.67;6.03;;;;;;;13.31;100.00;101817.03;5144721;27;20014;-61
2022/05/17 01:19:53;;;;;;;19.42;5.63;;;;;;;13.24;100.00;101819.66;5143904;27;20027;-61
2022/05/17 01:22:19;;;;;;;20.33;6.00;;;;;;;13.22;100.00;101816.09;5145254;27;20049;-61
2022/05/17 01:24:45;;;;;;;24.45;6.20;;;;;;;13.19;100.00;101813.44;5142300;27;20489;-62
2022/05/17 01:27:16;;;;;;;17.58;5.50;;;;;;;13.23;100.00;101820.50;5138328;27;20016;-61
2022/05/17 01:29:44;;;;;;;20.17;6.25;;;;;;;13.17;100.00;101811.63;5120123;27;20055;-61
2022/05/17 01:32:11;;;;;;;20.60;5.93;;;;;;;13.07;100.00;101810.63;5145424;27;20079;-61
2022/05/17 01:34:37;;;;;;;19.27;6.00;;;;;;;13.16;100.00;101816.03;5143306;27;20115;-62
2022/05/17 01:37:04;;;;;;;20.08;6.20;;;;;;;13.03;100.00;101822.09;5145006;27;20049;-62
2022/05/17 01:39:31;;;;;;;20.38;6.40;;;;;;;12.98;100.00;101827.38;5143634;27;20026;-62
2022/05/17 01:41:56;;;;;;;19.77;6.28;;;;;;;13.05;100.00;101818.59;5147139;27;20031;-63
2022/05/17 01:44:23;;;;;;;21.55;6.85;;;;;;;13.17;100.00;101812.50;5149190;27;20026;-62
2022/05/17 01:46:48;;;;;;;21.80;7.50;;;;;;;13.34;100.00;101819.72;5146565;27;20098;-62
2022/05/17 01:49:14;;;;;;;21.33;6.90;;;;;;;13.34;100.00;101811.75;5150291;27;20065;-62
2022/05/17 01:51:39;;;;;;;21.52;7.35;;;;;;;13.40;100.00;101826.00;5146429;27;20038;-63
2022/05/17 01:54:04;;;;;;;23.73;7.25;;;;;;;13.56;100.00;101816.41;5148686;27;20076;-62
2022/05/17 01:56:30;;;;;;;19.85;6.70;;;;;;;13.52;100.00;101825.22;5147859;27;20022;-63
2022/05/17 01:58:55;;;;;;;19.65;6.78;;;;;;;13.61;100.00;101821.75;5147529;27;20046;-63
2022/05/17 02:01:21;;;;;;;21.48;7.60;;;;;;;13.65;100.00;101817.34;5148765;27;20464;-63
2022/05/17 02:03:47;;;;;;;20.95;7.78;;;;;;;13.75;100.00;101821.84;5146097;27;20020;-63
2022/05/17 02:06:12;;;;;;;19.55;6.80;;;;;;;13.76;100.00;101824.53;5149806;27;20023;-63
2022/05/17 02:08:38;;;;;;;21.35;7.25;;;;;;;13.86;100.00;101825.47;5146578;27;20493;-62
2022/05/17 02:11:03;;;;;;;22.00;7.90;;;;;;;13.92;100.00;101824.59;5148300;27;20038;-61
2022/05/17 02:13:29;;;;;;;21.02;7.85;;;;;;;13.96;100.00;101826.41;5147814;27;20034;-62
2022/05/17 02:15:55;;;;;;;22.45;7.82;;;;;;;13.99;100.00;101823.75;5147135;27;20015;-62
2022/05/17 02:18:20;;;;;;;23.65;8.32;;;;;;;14.05;100.00;101820.25;5148822;27;20031;-63
2022/05/17 02:20:46;;;;;;;22.38;7.80;;;;;;;14.10;100.00;101822.06;5145539;27;20019;-62
2022/05/17 02:23:11;;;;;;;21.02;7.78;;;;;;;14.15;100.00;101822.06;5126959;27;20106;-61
2022/05/17 02:25:36;;;;;;;22.42;8.07;;;;;;;14.21;100.00;101821.22;5148452;27;20019;-63
2022/05/17 02:28:03;;;;;;;23.40;8.23;;;;;;;14.18;100.00;101822.06;5147042;27;20102;-62
2022/05/17 02:30:29;;;;;;;23.33;8.32;;;;;;;14.22;100.00;101818.56;5147416;27;20035;-62
2022/05/17 02:32:54;;;;;;;21.80;7.65;;;;;;;14.22;100.00;101825.66;5147695;27;20015;-63
2022/05/17 02:35:20;;;;;;;21.17;7.70;;;;;;;14.18;100.00;101827.41;5145742;27;20030;-62
2022/05/17 02:37:45;;;;;;;21.10;8.00;;;;;;;14.13;100.00;101830.03;5149071;27;20091;-63
2022/05/17 02:40:11;;;;;;;22.13;8.10;;;;;;;14.10;100.00;101826.50;5145384;27;20023;-63
2022/05/17 02:42:36;;;;;;;21.33;8.10;;;;;;;14.12;100.00;101827.38;5147948;27;20062;-62
2022/05/17 02:45:03;;;;;;;21.88;8.00;;;;;;;14.13;100.00;101831.81;5146839;27;20030;-63
2022/05/17 02:47:28;;;;;;;22.35;8.35;;;;;;;14.15;100.00;101837.16;5146823;27;20019;-62
2022/05/17 02:49:53;;;;;;;21.83;8.05;;;;;;;14.07;100.00;101839.78;5147746;27;20076;-62
2022/05/17 02:52:19;;;;;;;24.50;8.65;;;;;;;14.02;100.00;101836.19;5145518;27;20055;-62
2022/05/17 02:54:44;;;;;;;22.45;8.25;;;;;;;13.97;100.00;101835.28;5148669;27;20026;-64
2022/05/17 02:57:09;;;;;;;20.98;7.75;;;;;;;13.95;100.00;101830.84;5145400;27;20023;-64
2022/05/17 02:59:35;;;;;;;22.27;8.35;;;;;;;13.90;100.00;101835.22;5147558;27;20073;-64
2022/05/17 03:02:01;;;;;;;22.55;7.90;;;;;;;13.83;100.00;101841.38;5146280;27;20493;-64
2022/05/17 03:04:27;;;;;;;23.50;8.65;;;;;;;13.73;100.00;101840.44;5146554;27;20110;-62
2022/05/17 03:06:54;;;;;;;23.35;8.85;;;;;;;13.67;100.00;101840.38;5147492;27;20023;-64
2022/05/17 03:09:19;;;;;;;21.05;7.78;;;;;;;13.62;100.00;101841.25;5144921;27;20023;-63
2022/05/17 03:11:45;;;;;;;23.38;8.15;;;;;;;13.53;100.00;101842.06;5148634;27;20027;-64
2022/05/17 03:14:12;;;;;;;22.10;8.00;;;;;;;13.42;100.00;101839.31;5144692;27;20394;-64
2022/05/17 03:16:38;;;;;;;23.17;7.88;;;;;;;13.38;100.00;101838.41;5147513;27;20027;-63
2022/05/17 03:19:04;;;;;;;21.23;7.72;;;;;;;13.39;100.00;101841.94;5127068;27;20469;-62
2022/05/17 03:21:30;;;;;;;28.08;8.35;;;;;;;13.37;100.00;101839.28;5146093;27;20075;-63
2022/05/17 03:23:55;;;;;;;26.77;8.52;;;;;;;13.36;100.00;101845.44;5146938;27;20022;-65
2022/05/17 03:26:21;;;;;;;24.60;7.85;;;;;;;13.31;100.00;101841.84;5145497;27;20449;-64
2022/05/17 03:28:46;;;;;;;24.45;8.00;;;;;;;13.31;100.00;101841.84;5148141;27;20105;-63
2022/05/17 03:31:13;;;;;;;22.67;7.68;;;;;;;13.31;100.00;101847.16;5144396;27;20522;-64
2022/05/17 03:33:38;;;;;;;24.27;8.20;;;;;;;13.25;100.00;101847.06;5147368;27;20026;-64
2022/05/17 03:36:05;;;;;;;26.17;8.30;;;;;;;13.25;100.00;101847.06;5126019;27;20035;-62
2022/05/17 03:38:30;;;;;;;22.90;7.40;;;;;;;13.24;100.00;101843.53;5146243;27;20038;-64
2022/05/17 03:40:58;;;;;;;23.42;7.65;;;;;;;13.20;100.00;101847.03;5146824;27;20023;-64
2022/05/17 03:43:24;;;;;;;23.63;7.93;;;;;;;13.16;100.00;101845.22;5145060;27;20046;-64
2022/05/17 03:45:50;;;;;;;24.35;7.90;;;;;;;13.17;100.00;101849.66;5147512;27;20022;-62
2022/05/17 03:48:15;;;;;;;24.08;7.60;;;;;;;13.13;100.00;101853.16;5144237;27;20034;-64
2022/05/17 03:50:42;;;;;;;23.30;7.90;;;;;;;13.13;100.00;101854.94;5147152;27;20022;-63
2022/05/17 03:53:08;;;;;;;24.40;8.05;;;;;;;13.13;100.00;101847.84;5144583;27;20045;-64
2022/05/17 03:55:33;;;;;;;23.75;7.65;;;;;;;13.15;100.00;101840.81;5146134;27;20019;-64
2022/05/17 03:57:59;;;;;;;25.15;7.88;;;;;;;13.14;100.00;101852.31;5145577;27;20026;-64
2022/05/17 04:00:24;;;;;;;23.42;7.60;;;;;;;13.15;100.00;101845.22;5145111;27;20102;-63
2022/05/17 04:02:50;;;;;;;24.45;8.00;;;;;;;13.08;100.00;101845.16;5146622;27;20034;-64
2022/05/17 04:05:16;;;;;;;22.90;7.72;;;;;;;13.17;100.00;101846.13;5143275;27;20023;-64
2022/05/17 04:07:41;;;;;;;22.88;7.80;;;;;;;13.18;100.00;101848.81;5139292;27;20113;-64
2022/05/17 04:10:09;;;;;;;25.17;7.55;;;;;;;13.16;100.00;101847.88;5140708;27;20118;-63
2022/05/17 04:12:34;;;;;;;23.08;7.90;;;;;;;13.14;100.00;101854.97;5143861;27;20097;-64
2022/05/17 04:15:00;;;;;;;22.70;7.95;;;;;;;13.22;100.00;101857.66;5140622;27;20019;-64
2022/05/17 04:17:25;;;;;;;24.23;7.78;;;;;;;13.23;100.00;101860.34;5146881;27;20075;-63
2022/05/17 04:19:50;;;;;;;24.17;8.02;;;;;;;13.30;100.00;101860.44;5143583;27;20077;-64
2022/05/17 04:22:16;;;;;;;22.55;7.43;;;;;;;13.33;100.00;101861.31;5145916;27;20035;-64
2022/05/17 04:24:41;;;;;;;23.30;7.45;;;;;;;13.41;100.00;101866.72;5145045;27;20026;-62
2022/05/17 04:27:08;;;;;;;25.90;8.27;;;;;;;13.45;100.00;101868.53;5144639;27;20068;-62
2022/05/17 04:29:33;;;;;;;22.77;7.95;;;;;;;13.48;100.00;101865.03;5145961;27;20544;-65
2022/05/17 04:31:59;;;;;;;24.42;7.55;;;;;;;13.53;100.00;101861.53;5143099;27;20042;-64
2022/05/17 04:34:24;;;;;;;21.52;7.43;;;;;;;13.63;100.00;101865.16;5146967;27;20022;-62
2022/05/17 04:36:49;;;;;;;21.88;7.57;;;;;;;13.75;100.00;101869.69;5143557;27;20057;-63
2022/05/17 04:39:15;;;;;;;22.50;8.13;;;;;;;13.75;100.00;101872.34;5145388;27;20034;-62
2022/05/17 04:41:40;;;;;;;22.58;7.60;;;;;;;13.79;100.00;101871.50;5144826;27;20034;-61
2022/05/17 04:44:05;;;;;;;23.52;8.10;;;;;;;13.87;100.00;101858.25;5144026;27;20026;-62
2022/05/17 04:46:31;;;;;;;22.83;7.57;;;;;;;14.02;100.00;101865.44;5145945;27;20059;-62
2022/05/17 04:48:56;;;;;;;23.00;8.07;;;;;;;14.04;100.00;101871.66;5142926;27;20023;-61
2022/05/17 04:51:22;;;;;;;22.23;7.90;;;;;;;14.06;100.00;101869.88;5146641;27;20093;-61
2022/05/17 04:53:47;;;;;;;21.75;7.30;;;;;;;14.14;100.00;101873.50;5143415;27;20026;-61
2022/05/17 04:56:13;;;;;;;23.30;7.60;;;;;;;14.20;100.00;101873.53;5145093;27;20487;-62
2022/05/17 04:58:38;;;;;;;21.75;7.47;;;;;;;14.25;100.00;101870.88;5144703;27;20376;-62
2022/05/17 05:01:04;;;;;;;24.30;7.70;;;;;;;14.35;100.00;101877.16;5143270;27;20026;-61
2022/05/17 05:03:30;;;;;;;22.25;7.18;;;;;;;14.41;100.00;101877.16;5146182;27;20018;-61
2022/05/17 05:05:56;;;;;;;21.50;7.25;;;;;;;14.48;100.00;101878.97;5142669;27;20025;-61
2022/05/17 05:08:22;;;;;;;21.70;7.30;;;;;;;14.61;100.00;101880.84;5145692;27;20022;-61
2022/05/17 05:10:48;;;;;;;22.92;8.38;;;;;;;14.67;100.00;101884.41;5143355;27;20488;-64
2022/05/17 05:13:18;;;;;;;21.08;7.72;;;;;;;14.72;100.00;101891.53;5144462;27;20123;-63
2022/05/17 05:15:44;;;;;;;23.48;8.00;;;;;;;14.77;100.00;101894.22;5142926;27;20075;-63
2022/05/17 05:18:10;;;;;;;26.48;8.27;;;;;;;14.80;100.00;101900.41;5144290;27;20400;-63
2022/05/17 05:20:35;;;;;;;21.52;7.90;;;;;;;14.86;100.00;101896.00;5144821;27;20030;-63
2022/05/17 05:23:02;;;;;;;23.10;7.88;;;;;;;14.91;100.00;101905.81;5142567;27;20027;-63
2022/05/17 05:25:28;;;;;;;22.92;7.60;;;;;;;14.99;100.00;101905.81;5146492;27;20031;-66
2022/05/17 05:27:54;;;;;;;21.95;7.60;;;;;;;15.03;100.00;101904.03;5130673;27;20031;-64
2022/05/17 05:30:20;;;;;;;22.95;7.53;;;;;;;15.10;100.00;101911.16;5130875;27;20022;-63
2022/05/17 05:32:46;;;;;;;21.88;8.00;;;;;;;15.10;100.00;101905.81;5143263;27;20029;-63
2022/05/17 05:35:14;;;;;;;23.73;8.18;;;;;;;15.17;100.00;101918.28;5138194;27;20372;-63
2022/05/17 05:37:39;;;;;;;20.83;8.30;;;;;;;15.18;100.00;101920.06;5141572;27;20031;-64
2022/05/17 05:40:07;;;;;;;22.35;8.40;;;;;;;15.18;100.00;101917.41;5134862;27;20027;-64
2022/05/17 05:42:32;;;;;;;21.35;7.78;;;;;;;15.23;100.00;101920.97;5136323;27;20118;-64
2022/05/17 05:44:57;;;;;;;21.17;8.27;;;;;;;15.29;100.00;101928.97;5135359;27;20076;-65
2022/05/17 05:47:23;;;;;;;23.70;8.60;;;;;;;15.26;100.00;101923.63;5118622;27;20042;-64
2022/05/17 05:49:48;;;;;;;24.23;8.75;;;;;;;15.30;100.00;101929.84;5135507;27;20023;-62
2022/05/17 05:52:13;;;;;;;24.67;9.50;;;;;;;15.38;100.00;101935.19;5138344;27;20020;-62
2022/05/17 05:54:38;;;;;;;23.33;9.25;;;;;;;15.46;100.00;101933.44;5138472;27;20492;-62
2022/05/17 05:57:04;;;;;;;23.55;9.50;;;;;;;15.47;100.00;101924.56;5132854;27;20050;-62
2022/05/17 05:59:30;;;;;;;24.77;9.70;;;;;;;15.56;100.00;101929.88;5135746;27;20068;-65
2022/05/17 06:01:55;;;;;;;23.17;9.60;;;;;;;15.63;100.00;101929.00;5132183;27;20484;-64
2022/05/17 06:04:21;;;;;;;24.60;9.40;;;;;;;15.61;100.00;101925.47;5130764;27;20027;-63
2022/05/17 06:06:46;;;;;;;24.00;9.40;;;;;;;15.58;100.00;101921.88;5134694;27;20343;-63
2022/05/17 06:09:11;;;;;;;23.98;9.10;;;;;;;15.59;100.00;101919.22;5135979;27;20453;-62
2022/05/17 06:11:37;;;;;;;24.83;9.27;;;;;;;15.59;100.00;101923.66;5133620;27;20027;-64
2022/05/17 06:14:02;;;;;;;24.33;8.80;;;;;;;15.67;100.00;101925.44;5138773;27;20172;-68
2022/05/17 06:16:28;;;;;;;23.90;8.80;;;;;;;15.71;100.00;101922.78;5136181;27;20116;-66
2022/05/17 06:18:53;;;;;;;23.30;8.80;;;;;;;15.75;100.00;101917.44;5136487;27;20039;-66
2022/05/17 06:21:18;;;;;;;22.58;8.95;;;;;;;15.76;100.00;101929.91;5135138;27;20019;-70
2022/05/17 06:23:44;;;;;;;24.42;8.90;;;;;;;15.76;100.00;101927.22;5137562;27;20072;-70
2022/05/17 06:26:10;;;;;;;23.80;8.75;;;;;;;15.77;100.00;101920.13;5119611;27;20023;-70
2022/05/17 06:28:37;;;;;;;24.67;8.90;;;;;;;15.79;100.00;101926.38;5137198;27;20027;-67
2022/05/17 06:31:03;;;;;;;24.67;9.27;;;;;;;15.79;100.00;101923.72;5121117;27;20113;-69
2022/05/17 06:33:29;;;;;;;25.85;9.57;;;;;;;15.79;100.00;101929.06;5140787;27;20483;-68
2022/05/17 06:35:55;;;;;;;24.08;9.60;;;;;;;15.88;100.00;101922.81;5123108;27;20034;-68
2022/05/17 06:38:20;;;;;;;23.83;8.85;;;;;;;15.94;100.00;101933.47;5141860;27;20023;-71
2022/05/17 06:40:46;;;;;;;23.70;8.80;;;;;;;16.00;100.00;101937.03;5136978;27;20168;-68
2022/05/17 06:43:11;;;;;;;24.63;9.15;;;;;;;16.05;100.00;101931.69;5141282;27;20114;-69
2022/05/17 06:45:37;;;;;;;27.40;9.60;;;;;;;16.11;100.00;101947.69;5143685;27;20030;-68
2022/05/17 06:48:03;;;;;;;24.70;9.82;;;;;;;16.16;100.00;101945.00;5135489;27;20027;-64
2022/05/17 06:50:30;;;;;;;25.42;10.05;;;;;;;16.31;100.00;101939.66;5136002;27;20027;-67
2022/05/17 06:52:55;;;;;;;24.48;9.73;;;;;;;16.44;100.00;101948.53;5139449;27;20031;-66
2022/05/17 06:55:22;;;;;;;25.45;9.75;;;;;;;16.55;100.00;101953.81;5137217;27;20026;-65
2022/05/17 06:57:48;;;;;;;24.08;10.20;;;;;;;16.57;100.00;101952.03;5140417;27;20572;-67
2022/05/17 07:00:14;;;;;;;24.13;10.45;;;;;;;16.62;100.00;101952.91;5141345;27;20105;-66
2022/05/17 07:02:40;;;;;;;27.90;11.05;;;;;;;16.66;100.00;101956.44;5141444;27;20030;-73
2022/05/17 07:05:06;;;;;;;26.75;10.95;;;;;;;16.62;100.00;101958.25;5137919;27;20027;-67
2022/05/17 07:07:32;;;;;;;25.27;11.02;;;;;;;16.57;100.00;101954.69;5136839;27;20023;-69
2022/05/17 07:15:25;;;;;;;26.42;11.82;;;;;;;16.55;100.00;101956.50;5139801;27;20458;-68
2022/05/17 07:17:51;;;;;;;26.85;11.90;;;;;;;16.55;100.00;101953.81;5138726;27;20060;-72
2022/05/17 07:20:17;;;;;;;28.10;12.32;;;;;;;16.63;100.00;101960.03;5135476;27;20478;-64
2022/05/17 07:22:43;;;;;;;27.35;12.10;;;;;;;16.70;100.00;101961.78;5138401;27;20393;-65
2022/05/17 07:25:09;;;;;;;28.58;11.65;;;;;;;16.69;100.00;101965.34;5140172;27;20421;-64
2022/05/17 07:27:35;;;;;;;28.48;11.57;;;;;;;16.71;100.00;101966.22;5138202;27;20817;-64
2022/05/17 07:30:02;;;;;;;26.70;12.43;;;;;;;16.81;100.00;101968.88;5138560;27;20466;-63
2022/05/17 07:32:27;;;;;;;27.42;12.30;;;;;;;16.86;100.00;101970.63;5141658;27;20026;-63
2022/05/17 07:34:53;;;;;;;26.02;12.55;;;;;;;16.97;100.00;101957.25;5139767;27;20038;-64
2022/05/17 07:37:18;;;;;;;30.27;13.80;;;;;;;17.06;100.00;101959.88;5139250;27;20031;-63
2022/05/17 07:39:44;;;;;;;27.85;12.63;;;;;;;17.01;100.00;101953.69;5139925;27;20050;-64
2022/05/17 07:42:10;;;;;;;25.83;12.13;;;;;;;16.84;100.00;101947.50;5139561;27;20031;-64
2022/05/17 07:44:36;;;;;;;28.42;11.90;;;;;;;16.71;100.00;101950.19;5139117;27;20396;-64
2022/05/17 07:47:02;;;;;;;25.52;11.40;;;;;;;16.66;100.00;101948.44;5141640;27;20038;-64
2022/05/17 07:49:27;;;;;;;24.85;11.32;;;;;;;16.79;100.00;101958.19;5139017;27;20041;-63
2022/05/17 07:51:54;;;;;;;24.73;11.63;;;;;;;16.90;100.00;101960.84;5141102;27;20024;-64
2022/05/17 07:54:20;;;;;;;26.83;11.85;;;;;;;17.11;100.00;101964.31;5138356;27;20035;-64
2022/05/17 07:56:45;;;;;;;25.70;10.70;;;;;;;17.24;100.00;101972.25;5141481;27;20076;-64
2022/05/17 07:59:12;;;;;;;26.05;10.63;;;;;;;17.37;100.00;101973.09;5141735;27;20110;-64
2022/05/17 08:01:37;;;;;;;25.70;10.70;;;;;;;17.54;100.00;101970.28;5137468;27;20047;-64
2022/05/17 08:04:03;;;;;;;24.42;10.38;;;;;;;17.68;100.00;101967.53;5135458;27;20026;-64
2022/05/17 08:06:28;;;;;;;23.15;10.80;;;;;;;17.66;100.00;101971.09;5138882;27;20024;-64
2022/05/17 08:08:54;;;;;;;27.95;10.98;;;;;;;17.65;100.00;101967.56;5146800;27;20109;-66
2022/05/17 08:11:19;;;;;;;26.45;11.05;;;;;;;17.68;100.00;101967.53;5143381;27;20035;-64
2022/05/17 08:13:45;;;;;;;25.15;10.27;;;;;;;17.70;100.00;101975.53;5146443;27;20138;-64
2022/05/17 08:16:10;;;;;;;29.75;11.82;;;;;;;17.76;100.00;101978.16;5144457;27;20031;-61
2022/05/17 08:18:35;;;;;;;28.13;11.45;;;;;;;17.76;100.00;101975.47;5144523;27;20546;-64
2022/05/17 08:21:01;;;;;;;26.80;11.38;;;;;;;17.89;100.00;101985.16;5144769;27;20114;-67
2022/05/17 08:23:26;;;;;;;27.42;11.43;;;;;;;18.07;100.00;101976.16;5145841;27;20460;-67
2022/05/17 08:28:36;;;;;;;27.67;11.57;;;;;;;18.12;100.00;101979.66;5145577;27;20045;-66
2022/05/17 08:31:02;;;;;;;24.80;10.95;;;;;;;18.07;100.00;101981.50;5140898;27;20016;-66
2022/05/17 08:33:27;;;;;;;25.42;11.30;;;;;;;17.94;100.00;101980.72;5140313;27;20038;-67
2022/05/17 08:36:02;;;;;;;27.73;11.30;;;;;;;17.95;100.00;101970.91;5141457;27;20109;-67
2022/05/17 08:38:40;;;;;;;26.42;10.73;;;;;;;17.97;100.00;101978.91;5138686;27;20038;-66
2022/05/17 08:41:24;;;;;;;22.40;10.25;;;;;;;18.04;100.00;101976.19;5141289;27;20023;-69
2022/05/17 08:43:53;;;;;;;26.38;10.50;;;;;;;18.11;100.00;101983.25;5145788;27;20037;-65
2022/05/17 08:46:40;;;;;;;26.92;10.65;;;;;;;18.33;100.00;101980.34;5143757;27;20110;-66
2022/05/17 08:49:43;;;;;;;25.45;10.85;;;;;;;18.37;100.00;101971.41;5140933;27;20114;-66
2022/05/17 08:52:15;;;;;;;26.52;11.40;;;;;;;18.22;100.00;101969.78;5143589;27;20019;-66
2022/05/17 08:54:41;;;;;;;26.30;11.20;;;;;;;18.14;100.00;101968.94;5145763;27;20041;-67
2022/05/17 08:57:20;;;;;;;26.10;11.73;;;;;;;18.00;100.00;101977.09;5143801;27;20274;-66
2022/05/17 08:59:47;;;;;;;24.15;12.05;;;;;;;17.94;100.00;101969.16;5146269;27;20030;-66
2022/05/17 09:02:31;;;;;;;24.90;11.18;;;;;;;17.88;100.00;101961.13;5143038;27;20027;-66
2022/05/17 09:05:24;;;;;;;25.23;11.98;;;;;;;18.03;100.00;101966.38;5135235;27;20051;-69
2022/05/17 09:07:53;;;;;;;26.40;11.43;;;;;;;18.27;100.00;101973.28;5139376;27;20031;-65
2022/05/17 09:10:32;;;;;;;25.20;11.32;;;;;;;18.60;100.00;101971.16;5135980;27;21494;-67
2022/05/17 09:13:03;;;;;;;24.20;10.35;;;;;;;18.89;100.00;101964.59;5134043;27;20458;-66
2022/05/17 09:15:29;;;;;;;25.60;10.02;;;;;;;18.93;100.00;101962.75;5137234;27;20107;-64
2022/05/17 09:17:57;;;;;;;22.85;9.23;;;;;;;18.97;100.00;101962.72;5117318;27;20023;-67
2022/05/17 09:20:30;;;;;;;23.25;8.90;;;;;;;19.09;100.00;101961.66;5138623;27;20026;-68
2022/05/17 09:22:55;;;;;;;24.45;9.48;;;;;;;19.05;100.00;101951.00;5136608;27;20026;-70
2022/05/17 09:25:27;;;;;;;24.30;8.80;;;;;;;19.02;100.00;101962.66;5135556;27;20035;-67
2022/05/17 09:27:53;;;;;;;21.97;8.70;;;;;;;19.16;100.00;101944.59;5132479;27;20107;-69
2022/05/17 09:30:22;;;;;;;23.80;9.50;;;;;;;19.49;100.00;101950.34;5140786;27;20496;-68
2022/05/17 09:32:49;;;;;;;22.35;7.90;;;;;;;19.79;100.00;101942.75;5139109;27;20027;-66
2022/05/17 09:35:21;;;;;;;21.30;7.60;;;;;;;20.20;100.00;101941.13;5138802;27;20102;-64
2022/05/17 09:37:52;;;;;;;20.73;7.30;;;;;;;20.58;100.00;101943.13;5132602;27;20020;-63
2022/05/17 09:40:39;;;;;;;22.20;7.40;;;;;;;21.07;100.00;101951.06;5130732;27;20020;-63
2022/05/17 09:43:07;;;;;;;19.70;7.57;;;;;;;21.51;100.00;101945.59;5134654;27;20362;-66
2022/05/17 09:46:00;;;;;;;21.02;7.68;;;;;;;22.05;100.00;101948.75;5134565;27;20248;-68
2022/05/17 09:52:32;;;;;;;;;;;;;;;23.03;100.00;101950.50;5132195;27;20015;-68
2022/05/17 09:54:31;;;;;;;23.52;6.15;;;;;;;25.65;93.31;101945.72;5136467;27;20038;-65
2022/05/17 09:57:25;;;;;;;20.23;5.05;;;;;;;25.72;82.23;101938.22;5136280;27;20030;-66
2022/05/17 09:59:54;;;;;;;21.70;5.90;;;;;;;25.27;82.77;101937.31;5136283;27;20027;-63
2022/05/17 10:02:29;;;;;;;19.13;5.10;;;;;;;24.90;82.80;101933.34;5138150;27;20052;-68
2022/05/17 10:04:55;;;;;;;19.48;5.43;;;;;;;25.13;79.82;101923.47;5142011;27;20152;-66
2022/05/17 10:07:25;;;;;;;22.50;6.38;;;;;;;25.50;81.27;101935.50;5138459;27;20086;-69
2022/05/17 10:09:50;;;;;;;20.83;6.00;;;;;;;25.91;77.24;101922.06;5140883;27;20097;-66
2022/05/17 10:12:33;;;;;;;19.08;5.88;;;;;;;26.17;81.63;101922.78;5143506;27;20136;-67
2022/05/17 10:15:06;;;;;;;19.92;5.60;;;;;;;25.67;79.21;101919.44;5142976;27;20031;-64
2022/05/17 10:17:42;;;;;;;18.67;5.20;;;;;;;25.18;76.95;101913.34;5142766;27;20012;-63
2022/05/17 10:20:18;;;;;;;20.35;5.35;;;;;;;24.86;81.79;101910.97;5140870;27;20019;-67
2022/05/17 10:23:15;;;;;;;19.83;5.53;;;;;;;24.95;80.54;101903.44;5139476;27;20027;-64
2022/05/17 10:25:49;;;;;;;18.02;4.90;;;;;;;24.83;78.82;101904.81;5080466;28;20591;-67
2022/05/17 10:28:40;;;;;;;17.13;5.07;;;;;;;24.60;80.46;101897.59;5082944;28;20040;-65
2022/05/17 10:31:15;;;;;;;20.83;5.65;;;;;;;23.93;80.77;101896.38;5081071;28;20028;-67
2022/05/17 10:34:03;;;;;;;21.45;5.40;;;;;;;24.08;80.38;101900.34;5083250;28;20032;-67
2022/05/17 10:36:50;;;;;;;18.48;5.30;;;;;;;24.31;79.88;101905.78;5062595;28;20142;-66
2022/05/17 10:39:47;;;;;;;19.60;5.70;;;;;;;24.78;77.82;101906.81;5082491;28;20190;-65
2022/05/17 10:42:13;;;;;;;19.15;5.50;;;;;;;25.11;74.57;101903.72;5082816;28;20506;-65
2022/05/17 10:44:42;;;;;;;20.35;5.68;;;;;;;25.50;71.19;101908.44;5083395;28;20032;-67
2022/05/17 10:47:21;;;;;;;19.60;6.03;;;;;;;25.96;72.21;101903.78;5083235;28;20613;-63
2022/05/17 10:50:08;;;;;;;20.90;5.90;;;;;;;26.29;71.35;101899.69;5084013;28;20047;-65
2022/05/17 10:53:10;;;;;;;19.55;6.05;;;;;;;26.24;70.55;101891.75;5082185;28;20029;-67
2022/05/17 10:55:48;;;;;;;19.63;6.22;;;;;;;26.39;68.20;101895.59;5082951;28;20036;-66
2022/05/17 10:58:38;;;;;;;19.83;6.15;;;;;;;27.19;58.22;101899.97;5081826;28;20600;-64
2022/05/17 11:01:29;;;;;;;21.48;6.60;;;;;;;28.30;43.51;101890.75;5082224;28;20435;-64
2022/05/17 11:03:57;;;;;;;19.85;6.15;;;;;;;28.66;40.44;101887.88;5142419;27;20035;-66
2022/05/17 11:06:47;;;;;;;20.52;6.10;;;;;;;29.71;39.76;101889.13;5147877;27;20027;-65
2022/05/17 11:09:47;;;;;;;18.40;5.80;;;;;;;30.00;37.09;101884.66;5148258;27;20022;-64
2022/05/17 11:12:15;;;;;;;18.15;5.60;;;;;;;30.65;33.88;101890.66;5064445;28;20111;-66
2022/05/17 11:14:49;;;;;;;18.55;5.28;;;;;;;30.68;33.98;101885.00;5060402;28;20037;-64
2022/05/17 11:17:39;;;;;;;19.23;5.47;;;;;;;31.72;33.70;101876.34;5057036;28;20435;-64
2022/05/17 11:20:15;;;;;;;18.77;5.60;;;;;;;31.14;32.40;101871.09;5061667;28;20029;-66
2022/05/17 11:22:55;;;;;;;17.95;5.00;;;;;;;31.26;32.43;101862.06;5061185;28;20045;-64
2022/05/17 11:25:36;;;;;;;20.05;5.45;;;;;;;31.74;32.41;101860.69;5057901;28;20037;-64
2022/05/17 11:28:04;;;;;;;17.30;5.70;;;;;;;32.36;30.44;101853.59;5062885;28;20395;-69
2022/05/17 11:30:52;;;;;;;18.65;5.70;;;;;;;32.79;30.83;101853.22;5062110;28;20021;-67